Time;durP1;ratioP1;P1;durP2;ratioP2;P2;SDS_P1;SDS_P2;PMS_P1;PMS_P2;Temp;Humidity;BMP_temperature;BMP_pressure;BME280_temperature;BME280_humidity;BME280_pressure;Samples;Min_cycle;Max_cycle;Signal;HPM_P1;HPM_P2
2022/04/06 00:00:10;;;;;;;11.63;7.87;;;;;;;8.91;77.56;99082.13;5071339;28;20191;-60
2022/04/06 00:02:39;;;;;;;8.10;7.03;;;;;;;8.76;78.48;99074.88;5071838;28;20311;-61
2022/04/06 00:05:08;;;;;;;6.77;6.17;;;;;;;8.62;79.49;99071.91;5071565;28;20369;-60
2022/04/06 00:07:35;;;;;;;6.70;6.10;;;;;;;8.55;79.96;99067.81;5071577;28;20196;-60
2022/04/06 00:10:02;;;;;;;6.40;5.80;;;;;;;8.58;80.11;99065.19;5071235;28;20688;-60
2022/04/06 00:12:29;;;;;;;7.07;5.23;;;;;;;8.63;79.95;99073.53;5070290;28;20196;-59
2022/04/06 00:14:57;;;;;;;6.33;5.83;;;;;;;8.64;80.14;99070.97;5071290;28;20684;-61
2022/04/06 00:17:24;;;;;;;6.30;5.90;;;;;;;8.54;80.04;99058.47;5071254;28;20235;-60
2022/04/06 00:19:51;;;;;;;5.97;5.47;;;;;;;8.59;80.05;99077.09;5071155;28;20286;-61
2022/04/06 00:22:18;;;;;;;5.63;5.23;;;;;;;8.62;79.84;99084.66;5070648;28;20255;-60
2022/04/06 00:24:45;;;;;;;5.77;5.27;;;;;;;8.61;79.53;99080.44;5071048;28;20283;-61
2022/04/06 00:27:12;;;;;;;5.43;5.03;;;;;;;8.64;79.36;99080.34;5070824;28;20266;-60
2022/04/06 00:29:39;;;;;;;5.80;5.40;;;;;;;8.65;79.00;99082.88;5071175;28;20282;-60
2022/04/06 00:32:08;;;;;;;5.20;4.70;;;;;;;8.62;78.92;99084.66;5070972;28;20237;-60
2022/04/06 00:37:19;;;;;;;5.27;4.97;;;;;;;8.51;79.63;99084.94;5069537;28;20191;-61
2022/04/06 00:39:46;;;;;;;6.23;5.03;;;;;;;8.48;79.81;99084.19;5070646;28;20206;-60
2022/04/06 00:42:13;;;;;;;5.23;4.37;;;;;;;8.46;79.72;99081.69;5071030;28;20200;-60
2022/04/06 00:44:40;;;;;;;5.63;5.13;;;;;;;8.47;80.17;99091.00;5069835;28;20220;-60
2022/04/06 00:47:09;;;;;;;5.50;5.10;;;;;;;8.47;79.97;99102.94;5071394;28;20204;-60
2022/04/06 00:49:36;;;;;;;5.77;5.33;;;;;;;8.47;79.84;99090.16;5070815;28;20219;-66
2022/04/06 00:52:05;;;;;;;4.90;4.50;;;;;;;8.48;79.46;99094.41;5069982;28;20647;-66
2022/04/06 00:54:34;;;;;;;5.10;4.70;;;;;;;8.47;79.45;99101.22;5069438;28;20196;-66
2022/04/06 00:57:01;;;;;;;6.23;5.67;;;;;;;8.39;79.86;99101.44;5069495;28;20672;-66
2022/04/06 00:59:30;;;;;;;5.33;4.93;;;;;;;8.21;80.12;99076.34;5067744;28;20253;-66
2022/04/06 01:01:58;;;;;;;5.90;5.50;;;;;;;8.24;79.90;99091.56;5069600;28;20732;-66
2022/04/06 01:04:27;;;;;;;5.03;4.67;;;;;;;8.08;80.27;99074.16;5069725;28;20211;-66
2022/04/06 01:06:54;;;;;;;9.43;5.53;;;;;;;8.20;80.12;99100.22;5069901;28;20200;-66
2022/04/06 01:09:22;;;;;;;4.93;4.53;;;;;;;8.20;80.86;99097.66;5069769;28;20294;-66
2022/04/06 01:11:51;;;;;;;4.80;4.60;;;;;;;8.15;80.67;99094.38;5070012;28;20202;-66
2022/04/06 01:14:19;;;;;;;8.10;5.43;;;;;;;8.07;80.83;99091.19;5069130;28;20195;-66
2022/04/06 01:16:57;;;;;;;8.30;5.80;;;;;;;8.12;80.67;99101.25;5069189;28;20196;-66
2022/04/06 01:19:29;;;;;;;5.53;5.13;;;;;;;8.01;81.50;99106.66;5067692;28;20208;-66
2022/04/06 01:21:56;;;;;;;6.07;5.67;;;;;;;7.97;81.15;99099.94;5068074;28;20216;-66
2022/04/06 01:24:25;;;;;;;5.93;5.50;;;;;;;7.76;81.19;99090.22;5067778;28;20216;-66
2022/04/06 01:26:52;;;;;;;5.33;4.93;;;;;;;7.79;81.80;99113.13;5065669;28;20520;-66
2022/04/06 01:29:19;;;;;;;5.47;5.07;;;;;;;7.80;82.18;99110.56;5067982;28;20196;-66
2022/04/06 01:31:46;;;;;;;6.00;5.17;;;;;;;7.75;82.20;99116.66;5068143;28;20279;-66
2022/04/06 01:34:13;;;;;;;4.70;4.27;;;;;;;7.76;82.71;99118.31;5068784;28;20200;-66
2022/04/06 01:36:40;;;;;;;5.57;5.27;;;;;;;7.79;82.75;99111.41;5069735;28;20728;-66
2022/04/06 01:39:07;;;;;;;4.60;4.30;;;;;;;7.80;82.73;99110.56;5068972;28;20664;-66
2022/04/06 01:41:37;;;;;;;4.93;4.63;;;;;;;7.77;82.18;99115.72;5068450;28;20196;-66
2022/04/06 01:44:05;;;;;;;5.60;5.30;;;;;;;7.75;82.36;99116.66;5069670;28;20674;-66
2022/04/06 01:46:32;;;;;;;5.47;5.07;;;;;;;7.70;82.11;99118.44;5068789;28;20251;-66
2022/04/06 01:54:28;;;;;;;4.93;4.53;;;;;;;7.53;82.61;99115.47;5073334;28;20289;-66
2022/04/06 01:56:56;;;;;;;4.97;4.57;;;;;;;7.52;82.86;99127.38;5072737;28;20654;-66
2022/04/06 01:59:23;;;;;;;4.97;4.67;;;;;;;7.53;82.84;99125.66;5072990;28;20295;-66
2022/04/06 02:01:54;;;;;;;4.83;4.40;;;;;;;7.46;83.19;99108.81;5073277;28;20196;-66
2022/04/06 02:04:21;;;;;;;5.37;5.10;;;;;;;7.52;83.21;99132.47;5073249;28;20269;-66
2022/04/06 02:06:48;;;;;;;6.20;5.60;;;;;;;7.40;83.04;99120.81;5073748;28;20584;-66
2022/04/06 02:09:15;;;;;;;4.70;4.40;;;;;;;7.45;83.32;99127.53;5072627;28;20294;-66
2022/04/06 02:11:43;;;;;;;5.83;5.33;;;;;;;7.46;82.95;99129.22;5073281;28;20287;-66
2022/04/06 02:14:13;;;;;;;5.60;5.20;;;;;;;7.45;83.16;99127.53;5072766;28;20196;-66
2022/04/06 02:16:40;;;;;;;5.53;4.80;;;;;;;7.43;83.16;99136.94;5072631;28;20668;-66
2022/04/06 02:19:07;;;;;;;11.50;8.90;;;;;;;7.43;83.14;99131.84;5072630;28;20282;-66
2022/04/06 02:21:35;;;;;;;13.80;9.50;;;;;;;7.40;83.48;99128.47;5072873;28;20586;-66
2022/04/06 02:24:02;;;;;;;12.53;8.37;;;;;;;7.35;83.30;99127.72;5072607;28;20235;-66
2022/04/06 02:26:28;;;;;;;11.63;8.53;;;;;;;7.21;83.95;99116.13;5072507;28;20282;-66
2022/04/06 02:28:59;;;;;;;7.20;6.50;;;;;;;7.15;83.63;99109.47;5072870;28;20584;-66
2022/04/06 02:31:29;;;;;;;6.60;6.10;;;;;;;7.18;84.00;99108.56;5072403;28;20196;-66
2022/04/06 02:33:56;;;;;;;5.10;4.80;;;;;;;7.23;83.84;99133.09;5072631;28;20204;-66
2022/04/06 02:36:23;;;;;;;5.17;4.70;;;;;;;7.11;84.16;99115.50;5071473;28;20215;-66
2022/04/06 02:38:50;;;;;;;5.43;5.00;;;;;;;7.21;84.08;99128.88;5071477;28;20695;-66
2022/04/06 02:41:17;;;;;;;6.27;5.17;;;;;;;7.14;83.71;99124.81;5072134;28;20266;-66
2022/04/06 02:43:44;;;;;;;6.00;5.60;;;;;;;7.13;83.49;99126.50;5072552;28;20730;-66
2022/04/06 02:46:11;;;;;;;5.47;5.17;;;;;;;7.21;83.99;99145.03;5072315;28;20279;-66
2022/04/06 02:48:40;;;;;;;5.40;4.97;;;;;;;7.21;83.98;99150.13;5072086;28;20694;-66
2022/04/06 02:51:07;;;;;;;5.30;4.63;;;;;;;7.18;83.59;99155.28;5072201;28;20597;-66
2022/04/06 02:53:34;;;;;;;5.20;4.70;;;;;;;7.12;83.22;99155.41;5072365;28;20287;-66
2022/04/06 02:56:01;;;;;;;4.50;4.10;;;;;;;6.97;83.30;99140.44;5072503;28;20755;-63
2022/04/06 02:58:30;;;;;;;6.53;5.00;;;;;;;7.07;83.80;99157.22;5071739;28;20573;-63
2022/04/06 03:00:58;;;;;;;4.97;4.63;;;;;;;7.08;83.31;99156.34;5072225;28;20242;-63
2022/04/06 03:03:26;;;;;;;4.93;4.53;;;;;;;7.05;83.87;99153.84;5071753;28;20224;-63
2022/04/06 03:05:54;;;;;;;5.27;4.97;;;;;;;7.00;83.84;99159.91;5071926;28;20231;-63
2022/04/06 03:08:21;;;;;;;5.40;5.00;;;;;;;6.91;83.41;99145.66;5071728;28;20232;-63
2022/04/06 03:10:48;;;;;;;5.53;5.17;;;;;;;6.98;83.25;99162.47;5070526;28;20989;-63
2022/04/06 03:13:15;;;;;;;4.93;4.63;;;;;;;6.82;83.35;99140.72;5069813;28;20231;-63
2022/04/06 03:15:42;;;;;;;5.77;5.27;;;;;;;6.92;83.44;99165.16;5071967;28;20553;-63
2022/04/06 03:18:09;;;;;;;5.73;5.17;;;;;;;6.91;83.51;99166.03;5071583;28;20305;-63
2022/04/06 03:20:36;;;;;;;5.00;4.70;;;;;;;6.92;83.24;99161.75;5071153;28;20580;-63
2022/04/06 03:23:04;;;;;;;5.60;5.20;;;;;;;6.90;83.32;99174.53;5068794;28;20223;-63
2022/04/06 03:25:31;;;;;;;6.73;5.50;;;;;;;6.82;84.05;99167.03;5070851;28;20299;-63
2022/04/06 03:27:58;;;;;;;62.93;22.87;;;;;;;6.82;83.97;99172.13;5070218;28;20287;-63
2022/04/06 03:30:25;;;;;;;22.23;13.33;;;;;;;6.82;83.72;99179.78;5071523;28;20702;-63
2022/04/06 03:32:52;;;;;;;12.53;8.67;;;;;;;6.79;83.68;99176.44;5070758;28;20261;-63
2022/04/06 03:35:19;;;;;;;8.03;6.43;;;;;;;6.75;84.27;99179.94;5068197;28;20200;-63
2022/04/06 03:37:46;;;;;;;7.83;6.07;;;;;;;6.66;84.12;99170.72;5068400;28;20735;-63
2022/04/06 03:40:15;;;;;;;5.07;4.73;;;;;;;6.51;84.70;99145.56;5069417;28;20202;-60
2022/04/06 03:42:42;;;;;;;5.57;4.83;;;;;;;6.69;84.77;99185.97;5070103;28;20203;-60
2022/04/06 03:45:10;;;;;;;5.43;5.03;;;;;;;6.56;85.12;99163.31;5070292;28;20231;-60
2022/04/06 03:47:38;;;;;;;5.13;4.63;;;;;;;6.61;85.20;99179.34;5066630;28;20210;-60
2022/04/06 03:50:07;;;;;;;5.60;4.97;;;;;;;6.56;85.25;99178.59;5071480;28;20207;-59
2022/04/06 03:52:34;;;;;;;5.70;5.20;;;;;;;6.52;84.97;99176.94;5071264;28;20228;-59
2022/04/06 03:55:01;;;;;;;5.63;5.07;;;;;;;6.30;85.83;99164.56;5071528;28;20192;-60
2022/04/06 03:57:29;;;;;;;5.33;4.93;;;;;;;6.19;86.12;99158.84;5071443;28;20192;-59
2022/04/06 03:59:56;;;;;;;5.70;5.30;;;;;;;6.29;86.24;99185.81;5071209;28;20200;-59
2022/04/06 04:02:24;;;;;;;5.30;5.00;;;;;;;6.15;86.95;99179.25;5071330;28;20317;-59
2022/04/06 04:04:50;;;;;;;5.07;4.50;;;;;;;6.21;87.03;99192.72;5071116;28;20208;-59
2022/04/06 04:07:21;;;;;;;5.63;5.30;;;;;;;6.17;86.82;99193.63;5071093;28;20196;-60
2022/04/06 04:09:49;;;;;;;4.70;4.40;;;;;;;6.11;86.90;99201.38;5071121;28;20282;-60
2022/04/06 04:12:17;;;;;;;4.93;4.50;;;;;;;6.08;86.61;99196.31;5069435;28;20279;-59
2022/04/06 04:14:45;;;;;;;5.03;4.63;;;;;;;6.10;86.98;99193.78;5071112;28;20235;-60
2022/04/06 04:17:12;;;;;;;5.53;5.23;;;;;;;6.04;87.32;99199.78;5071117;28;20286;-59
2022/04/06 04:19:39;;;;;;;5.63;5.23;;;;;;;5.99;87.25;99191.38;5070122;28;20196;-59
2022/04/06 04:22:06;;;;;;;4.90;4.50;;;;;;;6.04;87.02;99209.94;5070666;28;20212;-60
2022/04/06 04:24:33;;;;;;;4.77;4.57;;;;;;;5.92;87.43;99182.16;5071174;28;20306;-59
2022/04/06 04:27:00;;;;;;;3.90;3.60;;;;;;;6.00;87.22;99208.34;5070930;28;20199;-60
2022/04/06 04:29:27;;;;;;;4.83;4.50;;;;;;;6.06;87.59;99200.59;5070093;28;20207;-59
2022/04/06 04:31:56;;;;;;;6.50;5.47;;;;;;;6.21;88.15;99228.34;5066929;28;20287;-60
2022/04/06 04:34:23;;;;;;;6.50;5.63;;;;;;;6.15;88.46;99218.28;5069609;28;20196;-60
2022/04/06 04:36:50;;;;;;;4.80;4.53;;;;;;;6.31;88.80;99232.44;5070406;28;20298;-60
2022/04/06 04:39:18;;;;;;;5.80;5.40;;;;;;;6.48;89.37;99236.44;5070156;28;20283;-60
2022/04/06 04:41:45;;;;;;;4.73;4.43;;;;;;;6.64;89.09;99245.50;5070475;28;20293;-60
2022/04/06 04:44:12;;;;;;;4.43;4.13;;;;;;;6.70;88.70;99232.66;5070630;28;20211;-59
2022/04/06 04:46:40;;;;;;;4.87;4.50;;;;;;;6.92;88.06;99243.28;5070675;28;20568;-60
2022/04/06 04:49:08;;;;;;;5.20;5.00;;;;;;;7.07;87.67;99243.88;5070792;28;20258;-59
2022/04/06 04:51:35;;;;;;;5.77;5.37;;;;;;;7.19;86.66;99247.91;5070538;28;20196;-60
2022/04/06 04:54:03;;;;;;;5.10;4.10;;;;;;;7.29;86.24;99250.25;5070716;28;20250;-60
2022/04/06 04:56:30;;;;;;;4.73;4.37;;;;;;;7.32;85.52;99239.16;5070837;28;20657;-60
2022/04/06 04:58:57;;;;;;;5.20;4.70;;;;;;;7.44;85.16;99245.69;5071037;28;20278;-59
2022/04/06 05:01:24;;;;;;;5.83;5.17;;;;;;;7.49;84.82;99251.56;5070834;28;20745;-59
2022/04/06 05:03:51;;;;;;;4.90;4.50;;;;;;;7.54;84.93;99245.50;5070341;28;20199;-60
2022/04/06 05:06:20;;;;;;;5.43;5.00;;;;;;;7.68;84.96;99252.88;5070802;28;20664;-60
2022/04/06 05:08:46;;;;;;;5.80;5.30;;;;;;;7.82;84.75;99246.59;5070459;28;20210;-59
2022/04/06 05:11:13;;;;;;;5.67;5.27;;;;;;;7.98;84.65;99251.38;5070186;28;20304;-60
2022/04/06 05:13:40;;;;;;;5.10;4.70;;;;;;;8.01;83.85;99257.25;5070106;28;20635;-60
2022/04/06 05:16:07;;;;;;;5.70;5.33;;;;;;;8.10;82.85;99262.16;5070126;28;20188;-60
2022/04/06 05:18:34;;;;;;;4.70;4.40;;;;;;;8.11;83.08;99257.91;5071453;28;20314;-65
2022/04/06 05:21:01;;;;;;;5.37;5.07;;;;;;;8.27;84.17;99262.59;5071361;28;20208;-66
2022/04/06 05:23:29;;;;;;;5.00;4.70;;;;;;;8.31;83.45;99260.84;5071632;28;20255;-66
2022/04/06 05:25:56;;;;;;;4.93;4.63;;;;;;;8.47;84.59;99271.53;5074631;28;20310;-66
2022/04/06 05:28:23;;;;;;;5.10;4.80;;;;;;;8.56;86.00;99261.97;5075597;28;20204;-66
2022/04/06 05:30:51;;;;;;;5.33;4.93;;;;;;;8.80;84.63;99276.69;5075396;28;20287;-67
2022/04/06 05:33:18;;;;;;;5.43;5.13;;;;;;;9.06;85.56;99282.84;5075438;28;20200;-66
2022/04/06 05:35:45;;;;;;;5.40;4.90;;;;;;;9.31;85.88;99277.03;5075549;28;20203;-66
2022/04/06 05:38:12;;;;;;;4.70;4.30;;;;;;;9.58;86.15;99266.94;5075037;28;20299;-66
2022/04/06 05:40:41;;;;;;;5.47;5.17;;;;;;;9.90;85.73;99279.63;5075358;28;20747;-67
2022/04/06 05:43:09;;;;;;;5.83;5.43;;;;;;;10.11;84.52;99283.28;5075248;28;20230;-66
2022/04/06 05:45:36;;;;;;;5.10;4.80;;;;;;;10.32;85.41;99278.38;5075102;28;20281;-66
2022/04/06 05:51:24;;;;;;;4.87;4.57;;;;;;;10.98;80.55;99287.34;5075441;28;20241;-66
2022/04/06 05:53:51;;;;;;;5.60;4.40;;;;;;;11.18;77.59;99287.50;5075009;28;20629;-68
2022/04/06 05:56:19;;;;;;;5.40;4.90;;;;;;;11.52;76.94;99300.84;5075105;28;20722;-66
2022/04/06 05:58:50;;;;;;;5.53;5.23;;;;;;;11.71;75.32;99288.22;5074935;28;20239;-67
2022/04/06 06:01:16;;;;;;;5.47;5.07;;;;;;;11.91;76.15;99290.88;5074970;28;20287;-67
2022/04/06 06:03:43;;;;;;;5.10;4.87;;;;;;;12.11;73.53;99290.13;5074956;28;20294;-66
2022/04/06 06:06:10;;;;;;;6.47;5.87;;;;;;;12.38;74.25;99286.47;5074676;28;20273;-67
2022/04/06 06:08:37;;;;;;;6.57;4.73;;;;;;;12.44;75.16;99260.53;5074859;28;20204;-66
2022/04/06 06:11:05;;;;;;;5.73;5.43;;;;;;;12.83;71.46;99277.81;5074684;28;20295;-67
2022/04/06 06:13:33;;;;;;;6.17;5.63;;;;;;;13.30;71.78;99287.00;5074878;28;20808;-66
2022/04/06 06:16:01;;;;;;;4.90;4.63;;;;;;;13.62;71.57;99296.75;5074562;28;20200;-66
2022/04/06 06:18:28;;;;;;;5.33;5.03;;;;;;;13.86;69.23;99286.25;5074690;28;20203;-66
2022/04/06 06:20:56;;;;;;;4.67;4.37;;;;;;;14.15;67.36;99290.91;5074498;28;20655;-67
2022/04/06 06:23:25;;;;;;;4.77;3.97;;;;;;;14.44;63.11;99289.56;5074496;28;20308;-67
2022/04/06 06:25:52;;;;;;;4.80;4.60;;;;;;;14.54;61.42;99281.31;5074292;28;20215;-66
2022/04/06 06:28:19;;;;;;;4.23;4.03;;;;;;;14.67;61.80;99287.53;5074442;28;20203;-66
2022/04/06 06:30:48;;;;;;;4.20;4.00;;;;;;;14.73;63.84;99288.16;5074340;28;20295;-67
2022/04/06 06:33:16;;;;;;;4.43;4.13;;;;;;;14.76;60.63;99291.44;5074209;28;20283;-67
2022/04/06 06:35:45;;;;;;;4.90;4.43;;;;;;;15.00;60.93;99292.78;5073858;28;20207;-68
2022/04/06 06:38:12;;;;;;;4.23;4.03;;;;;;;15.15;60.13;99288.63;5074134;28;20614;-68
2022/04/06 06:40:40;;;;;;;4.43;4.20;;;;;;;15.34;62.01;99293.69;5074366;28;20212;-68
2022/04/06 06:43:07;;;;;;;4.30;4.10;;;;;;;15.55;58.59;99296.03;5073820;28;20223;-67
2022/04/06 06:45:34;;;;;;;4.97;4.67;;;;;;;15.81;59.15;99298.97;5073890;28;20215;-68
2022/04/06 06:48:03;;;;;;;4.30;4.10;;;;;;;15.98;56.82;99304.09;5074103;28;20311;-67
2022/04/06 06:50:29;;;;;;;5.77;5.20;;;;;;;16.24;53.77;99301.78;5073824;28;20198;-70
2022/04/06 06:52:56;;;;;;;5.70;4.90;;;;;;;16.41;53.98;99303.44;5073450;28;20234;-67
2022/04/06 06:55:23;;;;;;;4.70;4.10;;;;;;;16.54;54.42;99294.06;5073006;28;20287;-67
2022/04/06 06:57:50;;;;;;;4.87;4.57;;;;;;;16.74;53.49;99301.56;5072499;28;20202;-66
2022/04/06 07:00:18;;;;;;;4.80;4.40;;;;;;;16.91;52.50;99307.53;5072628;28;20287;-68
2022/04/06 07:02:45;;;;;;;6.10;4.67;;;;;;;16.96;53.10;99295.19;5072427;28;20199;-68
2022/04/06 07:05:14;;;;;;;4.60;4.30;;;;;;;17.10;52.53;99298.63;5073662;28;20216;-66
2022/04/06 07:07:52;;;;;;;3.80;3.60;;;;;;;17.08;53.89;99289.28;5073483;28;20287;-66
2022/04/06 07:10:19;;;;;;;3.87;3.43;;;;;;;17.26;54.34;99299.38;5074093;28;20690;-66
2022/04/06 07:12:46;;;;;;;4.57;4.23;;;;;;;17.46;52.98;99294.78;5073558;28;20204;-66
2022/04/06 07:15:13;;;;;;;3.70;3.50;;;;;;;17.67;52.28;99296.94;5073586;28;20207;-65
2022/04/06 07:17:39;;;;;;;4.23;4.03;;;;;;;17.82;51.49;99301.22;5073351;28;20207;-66
2022/04/06 07:20:07;;;;;;;3.13;3.03;;;;;;;17.96;50.15;99305.56;5073557;28;20303;-66
2022/04/06 07:22:36;;;;;;;3.47;3.17;;;;;;;18.11;49.99;99307.19;5073290;28;20234;-67
2022/04/06 07:25:04;;;;;;;4.57;4.27;;;;;;;18.13;48.90;99301.88;5073207;28;20220;-67
2022/04/06 07:27:35;;;;;;;4.50;4.23;;;;;;;18.33;48.98;99311.84;5073434;28;20691;-66
2022/04/06 07:30:02;;;;;;;3.90;3.70;;;;;;;18.39;49.54;99303.69;5071805;28;20211;-66
2022/04/06 07:32:29;;;;;;;5.00;4.57;;;;;;;18.64;48.81;99313.38;5072284;28;20196;-68
2022/04/06 07:34:56;;;;;;;3.60;3.33;;;;;;;18.67;49.79;99303.63;5070287;28;20192;-68
2022/04/06 07:37:23;;;;;;;4.20;4.00;;;;;;;18.84;48.87;99313.75;5070077;28;20261;-68
2022/04/06 07:39:52;;;;;;;3.70;3.40;;;;;;;18.92;47.95;99310.66;5070552;28;20676;-68
2022/04/06 07:42:18;;;;;;;3.57;3.37;;;;;;;19.07;45.86;99308.78;5065092;28;20292;-67
2022/04/06 07:44:47;;;;;;;3.33;3.17;;;;;;;19.19;47.78;99301.00;5068434;28;20672;-67
2022/04/06 07:47:14;;;;;;;3.97;3.77;;;;;;;19.24;47.27;99313.72;5068653;28;20204;-68
2022/04/06 07:49:41;;;;;;;3.87;3.57;;;;;;;19.17;45.80;99317.66;5070544;28;20294;-67
2022/04/06 07:52:08;;;;;;;4.03;3.80;;;;;;;19.27;45.14;99313.50;5068555;28;20204;-67
2022/04/06 07:54:35;;;;;;;5.30;3.67;;;;;;;19.37;44.67;99309.34;5069914;28;20196;-68
2022/04/06 07:57:03;;;;;;;5.60;5.20;;;;;;;19.30;44.49;99305.50;5065866;28;20211;-67
2022/04/06 07:59:30;;;;;;;4.57;4.27;;;;;;;19.31;44.69;99314.97;5067652;28;20200;-68
2022/04/06 08:01:57;;;;;;;5.03;4.57;;;;;;;19.32;44.89;99311.44;5066996;28;20196;-67
2022/04/06 08:04:24;;;;;;;3.63;3.40;;;;;;;19.43;44.85;99308.13;5069914;28;20211;-68
2022/04/06 08:06:51;;;;;;;4.30;3.80;;;;;;;19.51;43.55;99306.69;5069110;28;20216;-68
2022/04/06 08:09:18;;;;;;;5.67;3.20;;;;;;;19.64;43.82;99302.31;5068971;28;20241;-68
2022/04/06 08:11:45;;;;;;;4.00;3.80;;;;;;;19.85;43.50;99308.63;5068698;28;20203;-68
2022/04/06 08:14:13;;;;;;;4.23;3.83;;;;;;;19.97;45.13;99298.31;5068669;28;20208;-68
2022/04/06 08:16:40;;;;;;;4.70;4.30;;;;;;;20.04;47.38;99294.31;5068250;28;20608;-68
2022/04/06 08:19:07;;;;;;;3.30;3.13;;;;;;;20.20;45.94;99310.50;5067821;28;20287;-68
2022/04/06 08:21:34;;;;;;;4.00;3.80;;;;;;;20.27;46.44;99307.41;5066408;28;20297;-68
2022/04/06 08:24:02;;;;;;;3.90;3.47;;;;;;;20.31;44.81;99302.81;5068936;28;20207;-68
2022/04/06 08:26:29;;;;;;;3.70;3.50;;;;;;;20.49;43.09;99301.47;5069918;28;20215;-68
2022/04/06 08:28:56;;;;;;;3.30;2.87;;;;;;;20.14;42.65;99308.34;5068363;28;20212;-68
2022/04/06 08:31:24;;;;;;;4.60;3.80;;;;;;;20.23;41.03;99305.09;5068625;28;20197;-68
2022/04/06 08:33:53;;;;;;;3.20;3.00;;;;;;;20.02;39.81;99297.03;5067402;28;20199;-68
2022/04/06 08:36:19;;;;;;;2.53;2.43;;;;;;;20.21;40.26;99309.59;5069727;28;20195;-69
2022/04/06 08:38:48;;;;;;;3.13;2.90;;;;;;;20.09;39.35;99302.66;5070146;28;20203;-68
2022/04/06 08:41:18;;;;;;;2.70;2.57;;;;;;;20.11;41.23;99296.41;5068908;28;20715;-68
2022/04/06 08:43:47;;;;;;;3.03;2.93;;;;;;;20.05;42.35;99290.78;5068857;28;20203;-68
2022/04/06 08:46:17;;;;;;;2.70;2.60;;;;;;;20.25;43.73;99287.59;5068684;28;20650;-68
2022/04/06 08:48:49;;;;;;;3.03;2.93;;;;;;;20.38;43.94;99296.25;5069376;28;20652;-68
2022/04/06 08:51:17;;;;;;;3.13;3.03;;;;;;;20.62;42.26;99296.22;5068617;28;20204;-68
2022/04/06 08:53:45;;;;;;;3.00;2.80;;;;;;;20.89;41.15;99295.03;5070029;28;20683;-68
2022/04/06 08:56:13;;;;;;;3.17;2.97;;;;;;;21.02;42.09;99289.75;5069540;28;20541;-68
2022/04/06 08:58:40;;;;;;;3.30;3.10;;;;;;;20.91;40.56;99281.88;5069149;28;20206;-68
2022/04/06 09:01:08;;;;;;;2.73;2.53;;;;;;;21.11;40.16;99276.06;5069774;28;20576;-68
2022/04/06 09:03:36;;;;;;;3.80;3.60;;;;;;;20.83;40.69;99279.03;5063874;28;20215;-69
2022/04/06 09:06:07;;;;;;;2.90;2.80;;;;;;;20.69;40.11;99260.97;5065781;28;20215;-68
2022/04/06 09:08:36;;;;;;;3.47;3.27;;;;;;;20.81;41.10;99271.31;5064493;28;20213;-68
2022/04/06 09:11:11;;;;;;;4.43;4.13;;;;;;;20.68;40.34;99265.34;5067588;28;20199;-68
2022/04/06 09:13:38;;;;;;;4.10;3.63;;;;;;;20.82;39.66;99257.34;5066585;28;20204;-68
2022/04/06 09:16:09;;;;;;;3.73;3.43;;;;;;;21.01;40.03;99266.38;5067157;28;20205;-68
2022/04/06 09:18:37;;;;;;;3.07;2.97;;;;;;;21.10;40.82;99250.13;5068926;28;20204;-68
2022/04/06 09:21:06;;;;;;;3.47;3.10;;;;;;;21.04;42.92;99230.50;5069534;28;20576;-68
2022/04/06 09:23:33;;;;;;;3.13;2.93;;;;;;;21.35;40.63;99236.88;5065304;28;20240;-69
2022/04/06 09:26:05;;;;;;;3.23;2.93;;;;;;;21.38;40.63;99239.22;5068814;28;20221;-68
2022/04/06 09:28:32;;;;;;;2.83;2.73;;;;;;;21.17;40.13;99220.84;5068134;28;20201;-68
2022/04/06 09:30:59;;;;;;;3.10;2.90;;;;;;;21.31;40.12;99228.44;5066868;28;20201;-68
2022/04/06 09:33:30;;;;;;;4.10;3.27;;;;;;;21.44;39.42;99228.31;5068116;28;20205;-65
2022/04/06 09:35:58;;;;;;;3.37;3.17;;;;;;;21.55;40.17;99230.91;5068493;28;20196;-65
2022/04/06 09:38:31;;;;;;;3.53;3.23;;;;;;;21.62;40.33;99226.06;5066845;28;21936;-65
2022/04/06 09:41:03;;;;;;;2.93;2.73;;;;;;;21.65;39.04;99224.03;5067687;28;20215;-65
2022/04/06 09:43:31;;;;;;;3.13;2.93;;;;;;;21.55;39.74;99220.47;5066324;28;20218;-65
2022/04/06 09:49:02;;;;;;;2.83;2.63;;;;;;;21.68;39.08;99226.41;5065621;28;20341;-64
2022/04/06 09:51:29;;;;;;;3.60;3.30;;;;;;;21.72;38.74;99217.38;5067871;28;20207;-64
2022/04/06 09:54:00;;;;;;;3.27;3.10;;;;;;;21.82;39.50;99210.50;5067199;28;20200;-64
2022/04/06 09:56:28;;;;;;;3.33;3.13;;;;;;;22.04;42.49;99201.81;5066691;28;20207;-64
2022/04/06 09:58:57;;;;;;;2.77;2.60;;;;;;;22.13;38.23;99205.47;5068628;28;20213;-65
2022/04/06 10:01:27;;;;;;;3.10;2.90;;;;;;;22.06;37.24;99209.53;5066816;28;20453;-62
2022/04/06 10:03:58;;;;;;;2.33;2.10;;;;;;;22.11;36.89;99202.16;5067168;28;20211;-62
2022/04/06 10:06:25;;;;;;;2.40;2.20;;;;;;;22.25;39.08;99189.66;5068014;28;20686;-62
2022/04/06 10:08:53;;;;;;;2.40;2.30;;;;;;;22.41;36.49;99199.66;5068346;28;20218;-62
2022/04/06 10:11:22;;;;;;;2.63;2.50;;;;;;;22.36;37.04;99191.38;5069108;28;20214;-62
2022/04/06 10:13:49;;;;;;;2.10;2.00;;;;;;;22.43;36.62;99182.06;5068390;28;20584;-62
2022/04/06 10:16:20;;;;;;;2.70;2.50;;;;;;;22.31;36.33;99177.88;5070769;28;20203;-63
2022/04/06 10:18:48;;;;;;;2.30;2.20;;;;;;;22.24;36.76;99176.69;5069128;28;20211;-62
2022/04/06 10:21:23;;;;;;;3.00;2.80;;;;;;;22.42;36.52;99170.00;5070776;28;20234;-62
2022/04/06 10:24:03;;;;;;;2.10;2.00;;;;;;;22.49;35.68;99168.50;5069976;28;20733;-62
2022/04/06 10:26:45;;;;;;;2.17;2.07;;;;;;;22.45;33.96;99165.34;5071763;28;20218;-62
2022/04/06 10:29:12;;;;;;;2.67;2.57;;;;;;;22.48;35.00;99170.31;5070366;28;20205;-62
2022/04/06 10:31:39;;;;;;;2.20;2.10;;;;;;;22.45;33.83;99156.69;5073276;28;20568;-62
2022/04/06 10:34:20;;;;;;;3.17;2.10;;;;;;;22.49;33.46;99158.06;5072133;28;20212;-62
2022/04/06 10:37:05;;;;;;;2.40;2.30;;;;;;;22.81;34.01;99164.06;5073157;28;20211;-62
2022/04/06 10:39:32;;;;;;;2.20;2.10;;;;;;;22.76;35.33;99166.25;5072334;28;20249;-63
2022/04/06 10:42:19;;;;;;;2.40;2.30;;;;;;;22.61;32.11;99158.84;5072721;28;20195;-63
2022/04/06 10:44:46;;;;;;;1.90;1.80;;;;;;;22.63;30.23;99147.28;5073220;28;20246;-62
2022/04/06 10:47:13;;;;;;;1.87;1.77;;;;;;;22.54;31.06;99131.56;5072271;28;20226;-62
2022/04/06 10:49:41;;;;;;;1.87;1.77;;;;;;;22.67;31.13;99137.44;5073440;28;20225;-62
2022/04/06 10:52:26;;;;;;;2.10;1.90;;;;;;;22.47;32.08;99133.84;5073380;28;20208;-63
2022/04/06 10:54:53;;;;;;;4.27;3.87;;;;;;;22.23;33.16;99139.31;5073669;28;20218;-67
2022/04/06 10:57:22;;;;;;;2.57;2.37;;;;;;;22.25;31.58;99136.59;5072995;28;20616;-67
2022/04/06 11:00:14;;;;;;;1.83;1.57;;;;;;;22.32;30.11;99138.59;5073564;28;20203;-67
2022/04/06 11:02:50;;;;;;;1.90;1.80;;;;;;;22.21;31.73;99136.00;5073561;28;20211;-67
2022/04/06 11:05:45;;;;;;;1.80;1.70;;;;;;;22.07;30.84;99138.09;5071873;28;20194;-66
2022/04/06 11:11:38;;;;;;;2.10;2.00;;;;;;;22.63;30.49;99123.78;5071164;28;20436;-65
2022/04/06 11:14:07;;;;;;;1.53;1.50;;;;;;;22.81;33.19;99124.88;5070276;28;20203;-65
2022/04/06 11:16:44;;;;;;;2.90;1.60;;;;;;;22.98;29.84;99120.81;5072588;28;20211;-65
2022/04/06 11:19:12;;;;;;;2.10;2.00;;;;;;;22.78;27.43;99083.31;5070555;28;20203;-63
2022/04/06 11:21:50;;;;;;;2.40;1.70;;;;;;;22.96;28.75;99114.91;5071902;28;20198;-63
2022/04/06 11:24:19;;;;;;;7.00;1.70;;;;;;;23.02;29.82;99123.06;5071791;28;20207;-63
2022/04/06 11:26:45;;;;;;;2.10;2.00;;;;;;;23.08;29.31;99099.94;5071956;28;20298;-63
2022/04/06 11:29:14;;;;;;;2.93;1.90;;;;;;;23.09;29.43;99106.84;5071562;28;20200;-63
2022/04/06 11:32:00;;;;;;;4.30;2.07;;;;;;;22.74;28.10;99095.00;5070587;28;20210;-67
2022/04/06 11:34:35;;;;;;;1.80;1.70;;;;;;;23.00;30.08;99104.03;5067655;28;20214;-65
2022/04/06 11:37:02;;;;;;;2.30;1.40;;;;;;;23.09;30.00;99106.84;5071338;28;20211;-66
2022/04/06 11:39:31;;;;;;;1.47;1.47;;;;;;;23.07;27.40;99098.31;5071831;28;20207;-66
2022/04/06 11:41:59;;;;;;;1.30;1.20;;;;;;;23.08;29.30;99094.72;5072164;28;20195;-66
2022/04/06 11:44:28;;;;;;;1.20;1.20;;;;;;;23.27;29.78;99092.16;5071547;28;20207;-67
2022/04/06 11:46:55;;;;;;;1.20;1.20;;;;;;;23.32;27.32;99082.13;5072089;28;20211;-66
2022/04/06 11:49:24;;;;;;;1.97;1.87;;;;;;;23.30;26.40;99086.66;5071587;28;20208;-65
2022/04/06 11:51:52;;;;;;;1.30;1.30;;;;;;;23.36;26.74;99080.91;5071824;28;20203;-65
2022/04/06 11:54:20;;;;;;;1.40;1.30;;;;;;;23.50;27.19;99075.31;5070916;28;20196;-65
2022/04/06 11:56:50;;;;;;;1.20;1.20;;;;;;;23.63;27.17;99078.50;5071830;28;20293;-65
2022/04/06 11:59:19;;;;;;;1.23;1.20;;;;;;;23.62;27.70;99068.97;5071402;28;20204;-64